sensor_id;sensor_type;location;lat;lon;timestamp;P1;durP1;ratioP1;P2;durP2;ratioP2
7965;SDS011;4028;43.272;26.932;2023-06-24T00:01:16;8.55;;;5.97;;
7965;SDS011;4028;43.272;26.932;2023-06-24T00:03:42;6.55;;;5.80;;
7965;SDS011;4028;43.272;26.932;2023-06-24T00:06:11;8.75;;;5.75;;
7965;SDS011;4028;43.272;26.932;2023-06-24T00:08:46;7.53;;;6.20;;
7965;SDS011;4028;43.272;26.932;2023-06-24T00:11:13;6.75;;;6.05;;
7965;SDS011;4028;43.272;26.932;2023-06-24T00:13:39;9.02;;;5.97;;
7965;SDS011;4028;43.272;26.932;2023-06-24T00:16:08;8.43;;;6.43;;
7965;SDS011;4028;43.272;26.932;2023-06-24T00:18:34;6.25;;;5.65;;
7965;SDS011;4028;43.272;26.932;2023-06-24T00:21:00;8.32;;;6.40;;
7965;SDS011;4028;43.272;26.932;2023-06-24T00:23:27;6.80;;;5.88;;
7965;SDS011;4028;43.272;26.932;2023-06-24T00:25:53;8.60;;;5.95;;
7965;SDS011;4028;43.272;26.932;2023-06-24T00:28:23;6.40;;;5.63;;
7965;SDS011;4028;43.272;26.932;2023-06-24T00:30:48;6.03;;;5.40;;
7965;SDS011;4028;43.272;26.932;2023-06-24T00:33:14;7.45;;;5.68;;
7965;SDS011;4028;43.272;26.932;2023-06-24T00:35:41;5.70;;;5.20;;
7965;SDS011;4028;43.272;26.932;2023-06-24T00:38:10;6.82;;;6.13;;
7965;SDS011;4028;43.272;26.932;2023-06-24T00:40:37;7.00;;;5.63;;
7965;SDS011;4028;43.272;26.932;2023-06-24T00:43:03;6.25;;;5.47;;
7965;SDS011;4028;43.272;26.932;2023-06-24T00:45:30;8.13;;;5.75;;
7965;SDS011;4028;43.272;26.932;2023-06-24T00:47:56;7.72;;;5.43;;
7965;SDS011;4028;43.272;26.932;2023-06-24T00:50:23;6.78;;;6.07;;
7965;SDS011;4028;43.272;26.932;2023-06-24T00:52:49;6.35;;;5.45;;
7965;SDS011;4028;43.272;26.932;2023-06-24T00:55:15;7.80;;;5.95;;
7965;SDS011;4028;43.272;26.932;2023-06-24T00:57:45;10.13;;;6.13;;
7965;SDS011;4028;43.272;26.932;2023-06-24T01:00:15;6.15;;;5.55;;
7965;SDS011;4028;43.272;26.932;2023-06-24T01:02:43;6.45;;;5.60;;
7965;SDS011;4028;43.272;26.932;2023-06-24T01:05:12;8.48;;;6.07;;
7965;SDS011;4028;43.272;26.932;2023-06-24T01:07:39;6.38;;;5.65;;
7965;SDS011;4028;43.272;26.932;2023-06-24T01:10:06;6.90;;;6.20;;
7965;SDS011;4028;43.272;26.932;2023-06-24T01:12:33;6.18;;;5.45;;
7965;SDS011;4028;43.272;26.932;2023-06-24T01:15:00;6.70;;;5.85;;
7965;SDS011;4028;43.272;26.932;2023-06-24T01:17:33;8.10;;;6.03;;
7965;SDS011;4028;43.272;26.932;2023-06-24T01:23:32;7.57;;;6.28;;
7965;SDS011;4028;43.272;26.932;2023-06-24T01:37:13;6.75;;;5.97;;
7965;SDS011;4028;43.272;26.932;2023-06-24T01:40:05;9.68;;;6.00;;
7965;SDS011;4028;43.272;26.932;2023-06-24T01:42:44;6.40;;;5.80;;
7965;SDS011;4028;43.272;26.932;2023-06-24T01:45:22;7.05;;;5.53;;
7965;SDS011;4028;43.272;26.932;2023-06-24T01:47:52;6.80;;;6.20;;
7965;SDS011;4028;43.272;26.932;2023-06-24T01:50:23;7.53;;;5.97;;
7965;SDS011;4028;43.272;26.932;2023-06-24T01:52:50;6.65;;;5.80;;
7965;SDS011;4028;43.272;26.932;2023-06-24T01:55:19;8.75;;;6.25;;
7965;SDS011;4028;43.272;26.932;2023-06-24T01:57:46;7.18;;;5.80;;
7965;SDS011;4028;43.272;26.932;2023-06-24T02:00:15;7.88;;;6.10;;
7965;SDS011;4028;43.272;26.932;2023-06-24T02:02:42;8.95;;;6.03;;
7965;SDS011;4028;43.272;26.932;2023-06-24T02:05:08;6.13;;;5.53;;
7965;SDS011;4028;43.272;26.932;2023-06-24T02:07:35;7.10;;;5.78;;
7965;SDS011;4028;43.272;26.932;2023-06-24T02:10:02;7.45;;;6.20;;
7965;SDS011;4028;43.272;26.932;2023-06-24T02:12:28;7.75;;;5.97;;
7965;SDS011;4028;43.272;26.932;2023-06-24T02:14:55;8.27;;;6.35;;
7965;SDS011;4028;43.272;26.932;2023-06-24T02:17:24;6.60;;;5.93;;
7965;SDS011;4028;43.272;26.932;2023-06-24T02:19:51;9.65;;;5.82;;
7965;SDS011;4028;43.272;26.932;2023-06-24T02:22:19;11.15;;;6.32;;
7965;SDS011;4028;43.272;26.932;2023-06-24T02:24:46;11.07;;;6.10;;
7965;SDS011;4028;43.272;26.932;2023-06-24T02:27:14;6.40;;;5.80;;
7965;SDS011;4028;43.272;26.932;2023-06-24T02:29:40;6.75;;;6.10;;
7965;SDS011;4028;43.272;26.932;2023-06-24T02:32:07;6.78;;;6.18;;
7965;SDS011;4028;43.272;26.932;2023-06-24T02:34:33;7.93;;;6.47;;
7965;SDS011;4028;43.272;26.932;2023-06-24T02:36:59;7.15;;;6.50;;
7965;SDS011;4028;43.272;26.932;2023-06-24T02:39:24;7.13;;;6.25;;
7965;SDS011;4028;43.272;26.932;2023-06-24T02:41:50;6.40;;;5.78;;
7965;SDS011;4028;43.272;26.932;2023-06-24T02:44:16;8.40;;;6.95;;
7965;SDS011;4028;43.272;26.932;2023-06-24T02:46:42;9.15;;;6.85;;
7965;SDS011;4028;43.272;26.932;2023-06-24T02:49:10;9.55;;;6.47;;
7965;SDS011;4028;43.272;26.932;2023-06-24T02:51:38;9.43;;;6.88;;
7965;SDS011;4028;43.272;26.932;2023-06-24T02:54:04;7.63;;;6.85;;
7965;SDS011;4028;43.272;26.932;2023-06-24T02:56:31;7.10;;;6.22;;
7965;SDS011;4028;43.272;26.932;2023-06-24T02:58:57;7.57;;;6.20;;
7965;SDS011;4028;43.272;26.932;2023-06-24T03:01:23;8.63;;;6.10;;
7965;SDS011;4028;43.272;26.932;2023-06-24T03:03:54;7.57;;;6.72;;
7965;SDS011;4028;43.272;26.932;2023-06-24T03:06:20;8.00;;;6.57;;
7965;SDS011;4028;43.272;26.932;2023-06-24T03:08:46;7.82;;;6.18;;
7965;SDS011;4028;43.272;26.932;2023-06-24T03:11:13;7.35;;;6.63;;
7965;SDS011;4028;43.272;26.932;2023-06-24T03:13:39;9.90;;;6.18;;
7965;SDS011;4028;43.272;26.932;2023-06-24T03:16:05;7.82;;;6.15;;
7965;SDS011;4028;43.272;26.932;2023-06-24T03:18:30;7.70;;;5.78;;
7965;SDS011;4028;43.272;26.932;2023-06-24T03:20:56;6.90;;;6.30;;
7965;SDS011;4028;43.272;26.932;2023-06-24T03:23:21;7.00;;;6.10;;
7965;SDS011;4028;43.272;26.932;2023-06-24T03:25:47;8.18;;;6.00;;
7965;SDS011;4028;43.272;26.932;2023-06-24T03:28:12;9.57;;;6.18;;
7965;SDS011;4028;43.272;26.932;2023-06-24T03:30:37;11.65;;;6.72;;
7965;SDS011;4028;43.272;26.932;2023-06-24T03:33:03;9.32;;;7.35;;
7965;SDS011;4028;43.272;26.932;2023-06-24T03:35:31;7.10;;;6.50;;
7965;SDS011;4028;43.272;26.932;2023-06-24T03:37:57;7.68;;;6.95;;
7965;SDS011;4028;43.272;26.932;2023-06-24T03:40:23;8.60;;;7.65;;
7965;SDS011;4028;43.272;26.932;2023-06-24T03:42:49;8.68;;;7.78;;
7965;SDS011;4028;43.272;26.932;2023-06-24T03:45:14;8.45;;;7.13;;
7965;SDS011;4028;43.272;26.932;2023-06-24T03:47:40;10.75;;;7.18;;
7965;SDS011;4028;43.272;26.932;2023-06-24T03:50:05;10.02;;;7.28;;
7965;SDS011;4028;43.272;26.932;2023-06-24T03:52:31;8.10;;;7.05;;
7965;SDS011;4028;43.272;26.932;2023-06-24T03:54:57;8.90;;;7.10;;
7965;SDS011;4028;43.272;26.932;2023-06-24T03:57:22;8.00;;;7.25;;
7965;SDS011;4028;43.272;26.932;2023-06-24T03:59:48;10.13;;;7.68;;
7965;SDS011;4028;43.272;26.932;2023-06-24T04:02:13;9.00;;;6.68;;
7965;SDS011;4028;43.272;26.932;2023-06-24T04:04:39;9.52;;;7.00;;
7965;SDS011;4028;43.272;26.932;2023-06-24T04:07:04;8.73;;;7.15;;
7965;SDS011;4028;43.272;26.932;2023-06-24T04:09:33;8.40;;;6.90;;
7965;SDS011;4028;43.272;26.932;2023-06-24T04:12:00;7.88;;;6.03;;
7965;SDS011;4028;43.272;26.932;2023-06-24T04:14:26;7.85;;;7.05;;
7965;SDS011;4028;43.272;26.932;2023-06-24T04:16:51;11.07;;;6.90;;
7965;SDS011;4028;43.272;26.932;2023-06-24T04:19:17;9.18;;;6.97;;
7965;SDS011;4028;43.272;26.932;2023-06-24T04:21:42;9.80;;;7.03;;
7965;SDS011;4028;43.272;26.932;2023-06-24T04:24:08;7.50;;;6.80;;
7965;SDS011;4028;43.272;26.932;2023-06-24T04:26:33;7.80;;;6.88;;
7965;SDS011;4028;43.272;26.932;2023-06-24T04:28:59;8.02;;;7.28;;
7965;SDS011;4028;43.272;26.932;2023-06-24T04:31:24;9.02;;;7.05;;
7965;SDS011;4028;43.272;26.932;2023-06-24T04:33:50;8.10;;;7.22;;
7965;SDS011;4028;43.272;26.932;2023-06-24T04:36:16;10.30;;;7.60;;
7965;SDS011;4028;43.272;26.932;2023-06-24T04:38:41;7.78;;;6.97;;
7965;SDS011;4028;43.272;26.932;2023-06-24T04:41:07;8.18;;;7.05;;
7965;SDS011;4028;43.272;26.932;2023-06-24T04:43:32;6.90;;;6.22;;
7965;SDS011;4028;43.272;26.932;2023-06-24T04:45:58;8.07;;;7.30;;
7965;SDS011;4028;43.272;26.932;2023-06-24T04:48:23;7.30;;;6.47;;
7965;SDS011;4028;43.272;26.932;2023-06-24T04:50:49;8.70;;;6.47;;
7965;SDS011;4028;43.272;26.932;2023-06-24T04:53:15;8.93;;;6.93;;
7965;SDS011;4028;43.272;26.932;2023-06-24T04:55:40;8.02;;;6.68;;
7965;SDS011;4028;43.272;26.932;2023-06-24T04:58:06;8.05;;;6.22;;
7965;SDS011;4028;43.272;26.932;2023-06-24T05:00:31;7.97;;;6.78;;
7965;SDS011;4028;43.272;26.932;2023-06-24T05:02:57;8.93;;;7.25;;
7965;SDS011;4028;43.272;26.932;2023-06-24T05:05:23;8.23;;;7.40;;
7965;SDS011;4028;43.272;26.932;2023-06-24T05:07:48;8.35;;;7.55;;
7965;SDS011;4028;43.272;26.932;2023-06-24T05:10:14;7.53;;;6.70;;
7965;SDS011;4028;43.272;26.932;2023-06-24T05:12:39;9.07;;;6.88;;
7965;SDS011;4028;43.272;26.932;2023-06-24T05:15:05;8.35;;;7.38;;
7965;SDS011;4028;43.272;26.932;2023-06-24T05:17:31;8.82;;;7.93;;
7965;SDS011;4028;43.272;26.932;2023-06-24T05:19:56;8.25;;;7.43;;
7965;SDS011;4028;43.272;26.932;2023-06-24T05:22:22;7.85;;;7.07;;
7965;SDS011;4028;43.272;26.932;2023-06-24T05:24:48;7.75;;;7.05;;
7965;SDS011;4028;43.272;26.932;2023-06-24T05:27:14;7.95;;;6.45;;
7965;SDS011;4028;43.272;26.932;2023-06-24T05:29:39;7.78;;;7.07;;
7965;SDS011;4028;43.272;26.932;2023-06-24T05:32:06;8.70;;;6.78;;
7965;SDS011;4028;43.272;26.932;2023-06-24T05:34:32;11.80;;;7.72;;
7965;SDS011;4028;43.272;26.932;2023-06-24T05:36:58;8.40;;;7.47;;
7965;SDS011;4028;43.272;26.932;2023-06-24T05:39:24;6.78;;;6.22;;
7965;SDS011;4028;43.272;26.932;2023-06-24T05:41:50;7.43;;;6.72;;
7965;SDS011;4028;43.272;26.932;2023-06-24T05:44:15;10.98;;;7.25;;
7965;SDS011;4028;43.272;26.932;2023-06-24T05:46:43;8.15;;;7.05;;
7965;SDS011;4028;43.272;26.932;2023-06-24T05:49:09;9.27;;;7.80;;
7965;SDS011;4028;43.272;26.932;2023-06-24T05:51:34;7.82;;;7.13;;
7965;SDS011;4028;43.272;26.932;2023-06-24T05:54:00;7.28;;;6.57;;
7965;SDS011;4028;43.272;26.932;2023-06-24T05:56:25;8.60;;;7.00;;
7965;SDS011;4028;43.272;26.932;2023-06-24T05:58:51;8.65;;;7.03;;
7965;SDS011;4028;43.272;26.932;2023-06-24T06:01:17;7.55;;;6.85;;
7965;SDS011;4028;43.272;26.932;2023-06-24T06:03:43;9.80;;;7.63;;
7965;SDS011;4028;43.272;26.932;2023-06-24T06:06:08;10.75;;;7.53;;
7965;SDS011;4028;43.272;26.932;2023-06-24T06:08:34;12.48;;;7.88;;
7965;SDS011;4028;43.272;26.932;2023-06-24T06:11:00;9.65;;;6.93;;
7965;SDS011;4028;43.272;26.932;2023-06-24T06:13:27;7.97;;;6.50;;
7965;SDS011;4028;43.272;26.932;2023-06-24T06:15:53;10.65;;;7.28;;
7965;SDS011;4028;43.272;26.932;2023-06-24T06:18:19;8.18;;;6.88;;
7965;SDS011;4028;43.272;26.932;2023-06-24T06:20:44;8.00;;;7.03;;
7965;SDS011;4028;43.272;26.932;2023-06-24T06:23:10;9.43;;;6.70;;
7965;SDS011;4028;43.272;26.932;2023-06-24T06:25:35;7.63;;;6.82;;
7965;SDS011;4028;43.272;26.932;2023-06-24T06:28:02;9.05;;;6.15;;
7965;SDS011;4028;43.272;26.932;2023-06-24T06:30:28;11.40;;;6.32;;
7965;SDS011;4028;43.272;26.932;2023-06-24T06:32:56;6.70;;;5.93;;
7965;SDS011;4028;43.272;26.932;2023-06-24T06:35:22;6.53;;;5.93;;
7965;SDS011;4028;43.272;26.932;2023-06-24T06:37:47;6.93;;;5.90;;
7965;SDS011;4028;43.272;26.932;2023-06-24T06:40:17;8.98;;;5.97;;
7965;SDS011;4028;43.272;26.932;2023-06-24T06:42:45;7.72;;;5.88;;
7965;SDS011;4028;43.272;26.932;2023-06-24T06:45:11;7.50;;;5.60;;
7965;SDS011;4028;43.272;26.932;2023-06-24T06:47:37;6.40;;;5.70;;
7965;SDS011;4028;43.272;26.932;2023-06-24T06:50:02;7.20;;;5.55;;
7965;SDS011;4028;43.272;26.932;2023-06-24T06:52:28;5.75;;;5.25;;
7965;SDS011;4028;43.272;26.932;2023-06-24T06:54:54;5.90;;;5.47;;
7965;SDS011;4028;43.272;26.932;2023-06-24T06:57:19;6.35;;;5.75;;
7965;SDS011;4028;43.272;26.932;2023-06-24T06:59:45;6.20;;;5.60;;
7965;SDS011;4028;43.272;26.932;2023-06-24T07:02:10;6.85;;;6.10;;
7965;SDS011;4028;43.272;26.932;2023-06-24T07:04:36;9.43;;;5.85;;
7965;SDS011;4028;43.272;26.932;2023-06-24T07:07:02;6.22;;;5.63;;
7965;SDS011;4028;43.272;26.932;2023-06-24T07:09:27;6.32;;;5.82;;
7965;SDS011;4028;43.272;26.932;2023-06-24T07:11:53;6.72;;;5.85;;
7965;SDS011;4028;43.272;26.932;2023-06-24T07:14:18;7.70;;;6.03;;
7965;SDS011;4028;43.272;26.932;2023-06-24T07:16:44;8.27;;;5.65;;
7965;SDS011;4028;43.272;26.932;2023-06-24T07:19:09;6.22;;;5.63;;
7965;SDS011;4028;43.272;26.932;2023-06-24T07:21:35;6.88;;;5.35;;
7965;SDS011;4028;43.272;26.932;2023-06-24T07:24:00;5.85;;;5.43;;
7965;SDS011;4028;43.272;26.932;2023-06-24T07:26:26;6.85;;;5.97;;
7965;SDS011;4028;43.272;26.932;2023-06-24T07:28:55;8.63;;;6.28;;
7965;SDS011;4028;43.272;26.932;2023-06-24T07:31:22;6.90;;;6.13;;
7965;SDS011;4028;43.272;26.932;2023-06-24T07:33:47;7.85;;;6.47;;
7965;SDS011;4028;43.272;26.932;2023-06-24T07:36:13;7.25;;;6.53;;
7965;SDS011;4028;43.272;26.932;2023-06-24T07:38:38;7.50;;;6.82;;
7965;SDS011;4028;43.272;26.932;2023-06-24T07:41:04;10.88;;;6.80;;
7965;SDS011;4028;43.272;26.932;2023-06-24T07:43:29;7.30;;;6.53;;
7965;SDS011;4028;43.272;26.932;2023-06-24T07:45:55;7.70;;;6.95;;
7965;SDS011;4028;43.272;26.932;2023-06-24T07:48:20;7.63;;;6.80;;
7965;SDS011;4028;43.272;26.932;2023-06-24T07:50:46;9.85;;;6.65;;
7965;SDS011;4028;43.272;26.932;2023-06-24T07:53:11;7.28;;;6.47;;
7965;SDS011;4028;43.272;26.932;2023-06-24T07:55:37;8.10;;;6.47;;
7965;SDS011;4028;43.272;26.932;2023-06-24T07:58:03;7.85;;;6.60;;
7965;SDS011;4028;43.272;26.932;2023-06-24T08:00:30;8.63;;;6.85;;
7965;SDS011;4028;43.272;26.932;2023-06-24T08:02:57;8.45;;;6.47;;
7965;SDS011;4028;43.272;26.932;2023-06-24T08:05:22;7.32;;;6.57;;
7965;SDS011;4028;43.272;26.932;2023-06-24T08:07:50;9.13;;;6.20;;
7965;SDS011;4028;43.272;26.932;2023-06-24T08:10:16;8.48;;;6.30;;
7965;SDS011;4028;43.272;26.932;2023-06-24T08:12:41;7.40;;;5.85;;
7965;SDS011;4028;43.272;26.932;2023-06-24T08:15:07;7.43;;;6.05;;
7965;SDS011;4028;43.272;26.932;2023-06-24T08:17:33;6.90;;;6.28;;
7965;SDS011;4028;43.272;26.932;2023-06-24T08:19:58;6.68;;;6.13;;
7965;SDS011;4028;43.272;26.932;2023-06-24T08:22:24;9.02;;;6.72;;
7965;SDS011;4028;43.272;26.932;2023-06-24T08:24:50;7.03;;;6.32;;
7965;SDS011;4028;43.272;26.932;2023-06-24T08:27:15;7.55;;;6.22;;
7965;SDS011;4028;43.272;26.932;2023-06-24T08:29:41;6.90;;;6.20;;
7965;SDS011;4028;43.272;26.932;2023-06-24T08:32:06;6.38;;;5.78;;
7965;SDS011;4028;43.272;26.932;2023-06-24T08:34:32;7.07;;;6.40;;
7965;SDS011;4028;43.272;26.932;2023-06-24T08:36:58;6.82;;;5.93;;
7965;SDS011;4028;43.272;26.932;2023-06-24T08:39:23;9.07;;;5.90;;
7965;SDS011;4028;43.272;26.932;2023-06-24T08:41:49;7.68;;;6.18;;
7965;SDS011;4028;43.272;26.932;2023-06-24T08:44:14;6.32;;;5.72;;
7965;SDS011;4028;43.272;26.932;2023-06-24T08:46:40;6.28;;;5.32;;
7965;SDS011;4028;43.272;26.932;2023-06-24T08:51:41;6.65;;;6.05;;
7965;SDS011;4028;43.272;26.932;2023-06-24T08:54:09;6.22;;;5.63;;
7965;SDS011;4028;43.272;26.932;2023-06-24T08:56:36;6.18;;;5.57;;
7965;SDS011;4028;43.272;26.932;2023-06-24T08:59:04;7.50;;;6.20;;
7965;SDS011;4028;43.272;26.932;2023-06-24T09:01:31;6.68;;;6.07;;
7965;SDS011;4028;43.272;26.932;2023-06-24T09:03:56;7.25;;;6.20;;
7965;SDS011;4028;43.272;26.932;2023-06-24T09:06:22;8.20;;;6.20;;
7965;SDS011;4028;43.272;26.932;2023-06-24T09:08:54;6.65;;;6.13;;
7965;SDS011;4028;43.272;26.932;2023-06-24T09:11:24;6.78;;;6.10;;
7965;SDS011;4028;43.272;26.932;2023-06-24T09:13:58;9.30;;;6.13;;
7965;SDS011;4028;43.272;26.932;2023-06-24T09:16:25;7.10;;;6.35;;
7965;SDS011;4028;43.272;26.932;2023-06-24T09:18:51;6.75;;;6.15;;
7965;SDS011;4028;43.272;26.932;2023-06-24T09:21:21;7.45;;;6.75;;
7965;SDS011;4028;43.272;26.932;2023-06-24T09:23:50;7.55;;;6.25;;
7965;SDS011;4028;43.272;26.932;2023-06-24T09:26:20;6.57;;;5.90;;
7965;SDS011;4028;43.272;26.932;2023-06-24T09:28:48;7.50;;;5.97;;
7965;SDS011;4028;43.272;26.932;2023-06-24T09:31:14;7.10;;;6.22;;
7965;SDS011;4028;43.272;26.932;2023-06-24T09:33:40;6.88;;;6.18;;
7965;SDS011;4028;43.272;26.932;2023-06-24T09:36:05;6.82;;;6.13;;
7965;SDS011;4028;43.272;26.932;2023-06-24T09:38:32;6.95;;;6.35;;
7965;SDS011;4028;43.272;26.932;2023-06-24T09:41:03;5.88;;;5.38;;
7965;SDS011;4028;43.272;26.932;2023-06-24T09:43:30;6.38;;;5.78;;
7965;SDS011;4028;43.272;26.932;2023-06-24T09:45:56;10.57;;;7.05;;
7965;SDS011;4028;43.272;26.932;2023-06-24T09:48:22;6.68;;;6.18;;
7965;SDS011;4028;43.272;26.932;2023-06-24T09:50:48;6.53;;;5.82;;
7965;SDS011;4028;43.272;26.932;2023-06-24T09:53:13;6.35;;;5.82;;
7965;SDS011;4028;43.272;26.932;2023-06-24T09:55:40;6.55;;;5.95;;
7965;SDS011;4028;43.272;26.932;2023-06-24T09:58:08;6.95;;;6.38;;
7965;SDS011;4028;43.272;26.932;2023-06-24T10:00:36;6.85;;;6.25;;
7965;SDS011;4028;43.272;26.932;2023-06-24T10:03:02;6.43;;;5.43;;
7965;SDS011;4028;43.272;26.932;2023-06-24T10:05:28;6.10;;;5.53;;
7965;SDS011;4028;43.272;26.932;2023-06-24T10:07:54;9.40;;;6.15;;
7965;SDS011;4028;43.272;26.932;2023-06-24T10:10:19;8.80;;;5.03;;
7965;SDS011;4028;43.272;26.932;2023-06-24T10:12:45;5.93;;;5.32;;
7965;SDS011;4028;43.272;26.932;2023-06-24T10:15:10;6.22;;;5.72;;
7965;SDS011;4028;43.272;26.932;2023-06-24T10:17:36;6.63;;;6.13;;
7965;SDS011;4028;43.272;26.932;2023-06-24T10:20:05;6.13;;;5.63;;
7965;SDS011;4028;43.272;26.932;2023-06-24T10:22:32;6.80;;;5.65;;
7965;SDS011;4028;43.272;26.932;2023-06-24T10:25:00;5.75;;;5.18;;
7965;SDS011;4028;43.272;26.932;2023-06-24T10:27:27;5.82;;;5.20;;
7965;SDS011;4028;43.272;26.932;2023-06-24T10:29:57;6.00;;;5.40;;
7965;SDS011;4028;43.272;26.932;2023-06-24T10:32:38;9.43;;;5.72;;
7965;SDS011;4028;43.272;26.932;2023-06-24T10:35:06;7.18;;;5.55;;
7965;SDS011;4028;43.272;26.932;2023-06-24T10:37:32;5.30;;;4.90;;
7965;SDS011;4028;43.272;26.932;2023-06-24T10:40:01;5.28;;;4.82;;
7965;SDS011;4028;43.272;26.932;2023-06-24T10:47:23;5.05;;;4.68;;
7965;SDS011;4028;43.272;26.932;2023-06-24T10:49:50;5.03;;;4.53;;
7965;SDS011;4028;43.272;26.932;2023-06-24T10:52:18;4.70;;;4.40;;
7965;SDS011;4028;43.272;26.932;2023-06-24T10:54:45;5.45;;;4.68;;
7965;SDS011;4028;43.272;26.932;2023-06-24T10:57:11;4.53;;;4.22;;
7965;SDS011;4028;43.272;26.932;2023-06-24T10:59:41;5.32;;;4.70;;
7965;SDS011;4028;43.272;26.932;2023-06-24T11:02:09;5.30;;;4.85;;
7965;SDS011;4028;43.272;26.932;2023-06-24T11:04:48;5.50;;;5.07;;
7965;SDS011;4028;43.272;26.932;2023-06-24T11:07:16;6.50;;;4.95;;
7965;SDS011;4028;43.272;26.932;2023-06-24T11:09:47;5.28;;;4.88;;
7965;SDS011;4028;43.272;26.932;2023-06-24T11:12:16;5.20;;;4.80;;
7965;SDS011;4028;43.272;26.932;2023-06-24T11:14:41;8.43;;;5.18;;
7965;SDS011;4028;43.272;26.932;2023-06-24T11:17:07;5.45;;;4.95;;
7965;SDS011;4028;43.272;26.932;2023-06-24T11:19:33;5.63;;;5.13;;
7965;SDS011;4028;43.272;26.932;2023-06-24T11:22:01;4.93;;;4.53;;
7965;SDS011;4028;43.272;26.932;2023-06-24T11:24:27;5.70;;;5.10;;
7965;SDS011;4028;43.272;26.932;2023-06-24T11:26:53;6.70;;;5.30;;
7965;SDS011;4028;43.272;26.932;2023-06-24T11:29:19;7.07;;;5.30;;
7965;SDS011;4028;43.272;26.932;2023-06-24T11:31:44;13.52;;;5.00;;
7965;SDS011;4028;43.272;26.932;2023-06-24T11:34:10;5.10;;;4.70;;
7965;SDS011;4028;43.272;26.932;2023-06-24T11:36:36;5.43;;;4.93;;
7965;SDS011;4028;43.272;26.932;2023-06-24T11:39:01;5.80;;;5.30;;
7965;SDS011;4028;43.272;26.932;2023-06-24T11:41:28;5.53;;;5.03;;
7965;SDS011;4028;43.272;26.932;2023-06-24T11:43:53;5.38;;;4.97;;
7965;SDS011;4028;43.272;26.932;2023-06-24T11:46:29;6.07;;;5.00;;
7965;SDS011;4028;43.272;26.932;2023-06-24T11:49:04;5.25;;;4.75;;
7965;SDS011;4028;43.272;26.932;2023-06-24T11:51:30;4.90;;;4.60;;
7965;SDS011;4028;43.272;26.932;2023-06-24T11:53:58;5.80;;;5.20;;
7965;SDS011;4028;43.272;26.932;2023-06-24T11:56:36;4.85;;;4.45;;
7965;SDS011;4028;43.272;26.932;2023-06-24T11:59:04;5.53;;;4.90;;
7965;SDS011;4028;43.272;26.932;2023-06-24T12:01:42;5.18;;;4.78;;
7965;SDS011;4028;43.272;26.932;2023-06-24T12:04:11;5.60;;;5.10;;
7965;SDS011;4028;43.272;26.932;2023-06-24T12:06:38;5.53;;;4.80;;
7965;SDS011;4028;43.272;26.932;2023-06-24T12:09:05;5.28;;;4.78;;
7965;SDS011;4028;43.272;26.932;2023-06-24T12:11:30;5.10;;;4.70;;
7965;SDS011;4028;43.272;26.932;2023-06-24T12:13:55;5.75;;;5.25;;
7965;SDS011;4028;43.272;26.932;2023-06-24T12:16:21;5.22;;;4.82;;
7965;SDS011;4028;43.272;26.932;2023-06-24T12:18:48;5.28;;;4.88;;
7965;SDS011;4028;43.272;26.932;2023-06-24T12:21:13;6.25;;;4.72;;
7965;SDS011;4028;43.272;26.932;2023-06-24T12:23:39;5.40;;;5.00;;
7965;SDS011;4028;43.272;26.932;2023-06-24T12:26:04;6.57;;;4.90;;
7965;SDS011;4028;43.272;26.932;2023-06-24T12:28:30;4.90;;;4.40;;
7965;SDS011;4028;43.272;26.932;2023-06-24T12:30:55;5.43;;;4.90;;
7965;SDS011;4028;43.272;26.932;2023-06-24T12:33:21;8.60;;;4.97;;
7965;SDS011;4028;43.272;26.932;2023-06-24T12:35:47;5.40;;;4.82;;
7965;SDS011;4028;43.272;26.932;2023-06-24T12:38:13;5.57;;;4.78;;
7965;SDS011;4028;43.272;26.932;2023-06-24T12:40:39;6.35;;;5.03;;
7965;SDS011;4028;43.272;26.932;2023-06-24T12:43:04;5.07;;;4.70;;
7965;SDS011;4028;43.272;26.932;2023-06-24T12:45:30;7.47;;;4.70;;
7965;SDS011;4028;43.272;26.932;2023-06-24T12:47:55;5.30;;;4.88;;
7965;SDS011;4028;43.272;26.932;2023-06-24T12:50:21;5.47;;;4.97;;
7965;SDS011;4028;43.272;26.932;2023-06-24T12:52:47;5.28;;;4.78;;
7965;SDS011;4028;43.272;26.932;2023-06-24T12:55:12;5.18;;;4.68;;
7965;SDS011;4028;43.272;26.932;2023-06-24T12:57:38;5.00;;;4.45;;
7965;SDS011;4028;43.272;26.932;2023-06-24T13:00:03;4.90;;;4.50;;
7965;SDS011;4028;43.272;26.932;2023-06-24T13:02:33;5.03;;;4.63;;
7965;SDS011;4028;43.272;26.932;2023-06-24T13:04:59;5.80;;;5.20;;
7965;SDS011;4028;43.272;26.932;2023-06-24T13:07:25;5.95;;;5.47;;
7965;SDS011;4028;43.272;26.932;2023-06-24T13:09:50;5.60;;;5.10;;
7965;SDS011;4028;43.272;26.932;2023-06-24T13:12:16;4.97;;;4.57;;
7965;SDS011;4028;43.272;26.932;2023-06-24T13:14:41;5.53;;;4.90;;
7965;SDS011;4028;43.272;26.932;2023-06-24T13:17:07;5.10;;;4.45;;
7965;SDS011;4028;43.272;26.932;2023-06-24T13:19:32;4.95;;;4.55;;
7965;SDS011;4028;43.272;26.932;2023-06-24T13:21:58;4.80;;;4.40;;
7965;SDS011;4028;43.272;26.932;2023-06-24T13:24:24;5.20;;;4.70;;
7965;SDS011;4028;43.272;26.932;2023-06-24T13:26:50;5.70;;;5.15;;
7965;SDS011;4028;43.272;26.932;2023-06-24T13:29:16;6.22;;;5.22;;
7965;SDS011;4028;43.272;26.932;2023-06-24T13:31:42;5.43;;;4.95;;
7965;SDS011;4028;43.272;26.932;2023-06-24T13:34:07;4.78;;;4.22;;
7965;SDS011;4028;43.272;26.932;2023-06-24T13:36:34;5.20;;;4.80;;
7965;SDS011;4028;43.272;26.932;2023-06-24T13:39:05;5.45;;;4.95;;
7965;SDS011;4028;43.272;26.932;2023-06-24T13:41:32;5.35;;;4.85;;
7965;SDS011;4028;43.272;26.932;2023-06-24T13:43:59;5.28;;;4.63;;
7965;SDS011;4028;43.272;26.932;2023-06-24T13:46:25;6.45;;;5.13;;
7965;SDS011;4028;43.272;26.932;2023-06-24T13:48:50;5.82;;;4.97;;
7965;SDS011;4028;43.272;26.932;2023-06-24T13:51:17;5.38;;;4.97;;
7965;SDS011;4028;43.272;26.932;2023-06-24T13:53:44;6.78;;;5.13;;
7965;SDS011;4028;43.272;26.932;2023-06-24T13:56:09;5.00;;;4.60;;
7965;SDS011;4028;43.272;26.932;2023-06-24T13:58:35;5.18;;;4.68;;
7965;SDS011;4028;43.272;26.932;2023-06-24T14:01:00;5.82;;;5.32;;
7965;SDS011;4028;43.272;26.932;2023-06-24T14:03:26;5.50;;;5.00;;
7965;SDS011;4028;43.272;26.932;2023-06-24T14:05:51;5.53;;;5.07;;
7965;SDS011;4028;43.272;26.932;2023-06-24T14:08:17;5.43;;;4.95;;
7965;SDS011;4028;43.272;26.932;2023-06-24T14:10:42;5.25;;;4.20;;
7965;SDS011;4028;43.272;26.932;2023-06-24T14:13:08;6.88;;;4.95;;
7965;SDS011;4028;43.272;26.932;2023-06-24T14:15:33;5.20;;;4.70;;
7965;SDS011;4028;43.272;26.932;2023-06-24T14:17:58;5.20;;;4.78;;
7965;SDS011;4028;43.272;26.932;2023-06-24T14:20:24;5.10;;;4.70;;
7965;SDS011;4028;43.272;26.932;2023-06-24T14:22:50;5.45;;;4.95;;
7965;SDS011;4028;43.272;26.932;2023-06-24T14:25:16;6.57;;;5.10;;
7965;SDS011;4028;43.272;26.932;2023-06-24T14:27:42;6.80;;;6.00;;
7965;SDS011;4028;43.272;26.932;2023-06-24T14:30:07;6.13;;;5.63;;
7965;SDS011;4028;43.272;26.932;2023-06-24T14:32:33;7.82;;;5.90;;
7965;SDS011;4028;43.272;26.932;2023-06-24T14:34:58;5.55;;;5.05;;
7965;SDS011;4028;43.272;26.932;2023-06-24T14:37:24;5.20;;;4.68;;
7965;SDS011;4028;43.272;26.932;2023-06-24T14:39:49;5.75;;;5.25;;
7965;SDS011;4028;43.272;26.932;2023-06-24T14:42:15;6.78;;;5.15;;
7965;SDS011;4028;43.272;26.932;2023-06-24T14:44:40;5.38;;;4.90;;
7965;SDS011;4028;43.272;26.932;2023-06-24T14:47:06;5.85;;;5.10;;
7965;SDS011;4028;43.272;26.932;2023-06-24T14:49:31;9.20;;;4.88;;
7965;SDS011;4028;43.272;26.932;2023-06-24T14:51:57;5.65;;;5.15;;
7965;SDS011;4028;43.272;26.932;2023-06-24T14:54:22;5.90;;;5.25;;
7965;SDS011;4028;43.272;26.932;2023-06-24T14:56:48;5.18;;;4.65;;
7965;SDS011;4028;43.272;26.932;2023-06-24T14:59:13;4.72;;;4.35;;
7965;SDS011;4028;43.272;26.932;2023-06-24T15:01:39;5.05;;;4.38;;
7965;SDS011;4028;43.272;26.932;2023-06-24T15:04:04;5.32;;;4.82;;
7965;SDS011;4028;43.272;26.932;2023-06-24T15:06:30;5.88;;;4.70;;
7965;SDS011;4028;43.272;26.932;2023-06-24T15:08:55;5.47;;;5.00;;
7965;SDS011;4028;43.272;26.932;2023-06-24T15:11:21;5.35;;;4.63;;
7965;SDS011;4028;43.272;26.932;2023-06-24T15:13:46;6.20;;;4.80;;
7965;SDS011;4028;43.272;26.932;2023-06-24T15:16:12;5.70;;;4.75;;
7965;SDS011;4028;43.272;26.932;2023-06-24T15:18:44;7.85;;;4.10;;